<?xml version="1.0" encoding="UTF-8" standalone="no" ?>
<gpx xmlns="http://www.topografix.com/GPX/1/1" xmlns:xsi="http://www.w3.org/2001/XMLSchema-instance" xsi:schemaLocation="http://www.topografix.com/GPX/1/1 http://www.topografix.com/GPX/1/1/gpx.xsd" version="1.1" creator="VisuGPX - https://www.visugpx.com">
  <metadata>
    <name>DROCOURT</name>
    <desc><![CDATA[fait]]></desc>
  </metadata>
  <trk>
    <name><![CDATA[DROCOURT-10651314]]></name>
    <trkseg>
      <trkpt lat="49.03491" lon="1.86456">
        <ele>39</ele>
        <time>2023-01-10T08:07:56Z</time>
      </trkpt>
      <trkpt lat="49.03494" lon="1.86424">
        <ele>39</ele>
        <time>2023-01-10T08:08:24Z</time>
      </trkpt>
      <trkpt lat="49.03523" lon="1.86299">
        <ele>42</ele>
        <time>2023-01-10T08:10:20Z</time>
      </trkpt>
      <trkpt lat="49.03543" lon="1.86199">
        <ele>43</ele>
        <time>2023-01-10T08:11:52Z</time>
      </trkpt>
      <trkpt lat="49.03611" lon="1.85964">
        <ele>45</ele>
        <time>2023-01-10T08:15:36Z</time>
      </trkpt>
      <trkpt lat="49.03737" lon="1.85697">
        <ele>70</ele>
        <time>2023-01-10T08:20:24Z</time>
      </trkpt>
      <trkpt lat="49.0375" lon="1.85655">
        <ele>75</ele>
        <time>2023-01-10T08:21:05Z</time>
      </trkpt>
      <trkpt lat="49.03754" lon="1.8561">
        <ele>79</ele>
        <time>2023-01-10T08:21:45Z</time>
      </trkpt>
      <trkpt lat="49.0375" lon="1.85553">
        <ele>81</ele>
        <time>2023-01-10T08:22:35Z</time>
      </trkpt>
      <trkpt lat="49.0375" lon="1.85507">
        <ele>82</ele>
        <time>2023-01-10T08:23:15Z</time>
      </trkpt>
      <trkpt lat="49.03776" lon="1.85367">
        <ele>88</ele>
        <time>2023-01-10T08:25:22Z</time>
      </trkpt>
      <trkpt lat="49.03801" lon="1.85286">
        <ele>92</ele>
        <time>2023-01-10T08:26:41Z</time>
      </trkpt>
      <trkpt lat="49.03838" lon="1.85214">
        <ele>95</ele>
        <time>2023-01-10T08:28:01Z</time>
      </trkpt>
      <trkpt lat="49.03862" lon="1.85206">
        <ele>98</ele>
        <time>2023-01-10T08:28:33Z</time>
      </trkpt>
      <trkpt lat="49.0391" lon="1.85147">
        <ele>103</ele>
        <time>2023-01-10T08:29:56Z</time>
      </trkpt>
      <trkpt lat="49.03961" lon="1.85054">
        <ele>102</ele>
        <time>2023-01-10T08:31:42Z</time>
      </trkpt>
      <trkpt lat="49.03989" lon="1.84986">
        <ele>105</ele>
        <time>2023-01-10T08:32:52Z</time>
      </trkpt>
      <trkpt lat="49.04006" lon="1.84933">
        <ele>107</ele>
        <time>2023-01-10T08:33:44Z</time>
      </trkpt>
      <trkpt lat="49.04083" lon="1.84735">
        <ele>111</ele>
        <time>2023-01-10T08:37:05Z</time>
      </trkpt>
      <trkpt lat="49.04091" lon="1.84728">
        <ele>111</ele>
        <time>2023-01-10T08:37:17Z</time>
      </trkpt>
      <trkpt lat="49.04102" lon="1.84725">
        <ele>111</ele>
        <time>2023-01-10T08:37:32Z</time>
      </trkpt>
      <trkpt lat="49.04115" lon="1.8473">
        <ele>112</ele>
        <time>2023-01-10T08:37:50Z</time>
      </trkpt>
      <trkpt lat="49.04148" lon="1.84758">
        <ele>115</ele>
        <time>2023-01-10T08:38:41Z</time>
      </trkpt>
      <trkpt lat="49.04164" lon="1.84763">
        <ele>116</ele>
        <time>2023-01-10T08:39:02Z</time>
      </trkpt>
      <trkpt lat="49.04172" lon="1.8479">
        <ele>119</ele>
        <time>2023-01-10T08:39:28Z</time>
      </trkpt>
      <trkpt lat="49.04186" lon="1.84807">
        <ele>121</ele>
        <time>2023-01-10T08:39:52Z</time>
      </trkpt>
      <trkpt lat="49.0421" lon="1.84819">
        <ele>122</ele>
        <time>2023-01-10T08:40:26Z</time>
      </trkpt>
      <trkpt lat="49.0423" lon="1.84827">
        <ele>124</ele>
        <time>2023-01-10T08:40:53Z</time>
      </trkpt>
      <trkpt lat="49.04288" lon="1.84825">
        <ele>124</ele>
        <time>2023-01-10T08:42:11Z</time>
      </trkpt>
      <trkpt lat="49.04312" lon="1.84827">
        <ele>124</ele>
        <time>2023-01-10T08:42:43Z</time>
      </trkpt>
      <trkpt lat="49.04326" lon="1.84833">
        <ele>125</ele>
        <time>2023-01-10T08:43:02Z</time>
      </trkpt>
      <trkpt lat="49.04342" lon="1.8485">
        <ele>125</ele>
        <time>2023-01-10T08:43:28Z</time>
      </trkpt>
      <trkpt lat="49.04367" lon="1.84883">
        <ele>124</ele>
        <time>2023-01-10T08:44:12Z</time>
      </trkpt>
      <trkpt lat="49.04384" lon="1.84918">
        <ele>124</ele>
        <time>2023-01-10T08:44:51Z</time>
      </trkpt>
      <trkpt lat="49.04394" lon="1.84963">
        <ele>124</ele>
        <time>2023-01-10T08:45:32Z</time>
      </trkpt>
      <trkpt lat="49.044" lon="1.85019">
        <ele>124</ele>
        <time>2023-01-10T08:46:22Z</time>
      </trkpt>
      <trkpt lat="49.04409" lon="1.85018">
        <ele>123</ele>
        <time>2023-01-10T08:46:34Z</time>
      </trkpt>
      <trkpt lat="49.04417" lon="1.85035">
        <ele>123</ele>
        <time>2023-01-10T08:46:52Z</time>
      </trkpt>
      <trkpt lat="49.04435" lon="1.85055">
        <ele>122</ele>
        <time>2023-01-10T08:47:22Z</time>
      </trkpt>
      <trkpt lat="49.04438" lon="1.85075">
        <ele>122</ele>
        <time>2023-01-10T08:47:40Z</time>
      </trkpt>
      <trkpt lat="49.04442" lon="1.85081">
        <ele>122</ele>
        <time>2023-01-10T08:47:47Z</time>
      </trkpt>
      <trkpt lat="49.04458" lon="1.85087">
        <ele>122</ele>
        <time>2023-01-10T08:48:09Z</time>
      </trkpt>
      <trkpt lat="49.04468" lon="1.85103">
        <ele>123</ele>
        <time>2023-01-10T08:48:29Z</time>
      </trkpt>
      <trkpt lat="49.04502" lon="1.85113">
        <ele>123</ele>
        <time>2023-01-10T08:49:15Z</time>
      </trkpt>
      <trkpt lat="49.04512" lon="1.85121">
        <ele>124</ele>
        <time>2023-01-10T08:49:30Z</time>
      </trkpt>
      <trkpt lat="49.04524" lon="1.85119">
        <ele>124</ele>
        <time>2023-01-10T08:49:46Z</time>
      </trkpt>
      <trkpt lat="49.04528" lon="1.85151">
        <ele>124</ele>
        <time>2023-01-10T08:50:14Z</time>
      </trkpt>
      <trkpt lat="49.04536" lon="1.85149">
        <ele>125</ele>
        <time>2023-01-10T08:50:25Z</time>
      </trkpt>
      <trkpt lat="49.04549" lon="1.85141">
        <ele>125</ele>
        <time>2023-01-10T08:50:44Z</time>
      </trkpt>
      <trkpt lat="49.04587" lon="1.85151">
        <ele>126</ele>
        <time>2023-01-10T08:51:35Z</time>
      </trkpt>
      <trkpt lat="49.04599" lon="1.85165">
        <ele>126</ele>
        <time>2023-01-10T08:51:56Z</time>
      </trkpt>
      <trkpt lat="49.04604" lon="1.85198">
        <ele>125</ele>
        <time>2023-01-10T08:52:25Z</time>
      </trkpt>
      <trkpt lat="49.04637" lon="1.85187">
        <ele>126</ele>
        <time>2023-01-10T08:53:10Z</time>
      </trkpt>
      <trkpt lat="49.04643" lon="1.85152">
        <ele>126</ele>
        <time>2023-01-10T08:53:42Z</time>
      </trkpt>
      <trkpt lat="49.04641" lon="1.85137">
        <ele>126</ele>
        <time>2023-01-10T08:53:55Z</time>
      </trkpt>
      <trkpt lat="49.04673" lon="1.85105">
        <ele>126</ele>
        <time>2023-01-10T08:54:46Z</time>
      </trkpt>
      <trkpt lat="49.04687" lon="1.85085">
        <ele>126</ele>
        <time>2023-01-10T08:55:12Z</time>
      </trkpt>
      <trkpt lat="49.04724" lon="1.84983">
        <ele>132</ele>
        <time>2023-01-10T08:56:54Z</time>
      </trkpt>
      <trkpt lat="49.04697" lon="1.84885">
        <ele>133</ele>
        <time>2023-01-10T08:58:27Z</time>
      </trkpt>
      <trkpt lat="49.04698" lon="1.8486">
        <ele>134</ele>
        <time>2023-01-10T08:58:49Z</time>
      </trkpt>
      <trkpt lat="49.04702" lon="1.8485">
        <ele>135</ele>
        <time>2023-01-10T08:58:59Z</time>
      </trkpt>
      <trkpt lat="49.04744" lon="1.84787">
        <ele>142</ele>
        <time>2023-01-10T09:00:18Z</time>
      </trkpt>
      <trkpt lat="49.0476" lon="1.84743">
        <ele>145</ele>
        <time>2023-01-10T09:01:02Z</time>
      </trkpt>
      <trkpt lat="49.04748" lon="1.84616">
        <ele>150</ele>
        <time>2023-01-10T09:02:54Z</time>
      </trkpt>
      <trkpt lat="49.04723" lon="1.84427">
        <ele>151</ele>
        <time>2023-01-10T09:05:43Z</time>
      </trkpt>
      <trkpt lat="49.04702" lon="1.84308">
        <ele>148</ele>
        <time>2023-01-10T09:07:30Z</time>
      </trkpt>
      <trkpt lat="49.04701" lon="1.84283">
        <ele>148</ele>
        <time>2023-01-10T09:07:52Z</time>
      </trkpt>
      <trkpt lat="49.04705" lon="1.84212">
        <ele>150</ele>
        <time>2023-01-10T09:08:55Z</time>
      </trkpt>
      <trkpt lat="49.04694" lon="1.84098">
        <ele>150</ele>
        <time>2023-01-10T09:10:35Z</time>
      </trkpt>
      <trkpt lat="49.04693" lon="1.84048">
        <ele>151</ele>
        <time>2023-01-10T09:11:19Z</time>
      </trkpt>
      <trkpt lat="49.04706" lon="1.84046">
        <ele>153</ele>
        <time>2023-01-10T09:11:37Z</time>
      </trkpt>
      <trkpt lat="49.04769" lon="1.83981">
        <ele>162</ele>
        <time>2023-01-10T09:13:18Z</time>
      </trkpt>
      <trkpt lat="49.04786" lon="1.83948">
        <ele>163</ele>
        <time>2023-01-10T09:13:55Z</time>
      </trkpt>
      <trkpt lat="49.04977" lon="1.83654">
        <ele>150</ele>
        <time>2023-01-10T09:19:57Z</time>
      </trkpt>
      <trkpt lat="49.05015" lon="1.83685">
        <ele>152</ele>
        <time>2023-01-10T09:20:54Z</time>
      </trkpt>
      <trkpt lat="49.05167" lon="1.83895">
        <ele>164</ele>
        <time>2023-01-10T09:25:28Z</time>
      </trkpt>
      <trkpt lat="49.05215" lon="1.83968">
        <ele>167</ele>
        <time>2023-01-10T09:26:58Z</time>
      </trkpt>
      <trkpt lat="49.05337" lon="1.84082">
        <ele>180</ele>
        <time>2023-01-10T09:30:09Z</time>
      </trkpt>
      <trkpt lat="49.0549" lon="1.84203">
        <ele>183</ele>
        <time>2023-01-10T09:33:59Z</time>
      </trkpt>
      <trkpt lat="49.05556" lon="1.84273">
        <ele>188</ele>
        <time>2023-01-10T09:35:47Z</time>
      </trkpt>
      <trkpt lat="49.05574" lon="1.84262">
        <ele>189</ele>
        <time>2023-01-10T09:36:12Z</time>
      </trkpt>
      <trkpt lat="49.05619" lon="1.84216">
        <ele>191</ele>
        <time>2023-01-10T09:37:25Z</time>
      </trkpt>
      <trkpt lat="49.05661" lon="1.84168">
        <ele>193</ele>
        <time>2023-01-10T09:38:35Z</time>
      </trkpt>
      <trkpt lat="49.05713" lon="1.84099">
        <ele>190</ele>
        <time>2023-01-10T09:40:07Z</time>
      </trkpt>
      <trkpt lat="49.05789" lon="1.84018">
        <ele>187</ele>
        <time>2023-01-10T09:42:10Z</time>
      </trkpt>
      <trkpt lat="49.05834" lon="1.83977">
        <ele>185</ele>
        <time>2023-01-10T09:43:20Z</time>
      </trkpt>
      <trkpt lat="49.05865" lon="1.83967">
        <ele>181</ele>
        <time>2023-01-10T09:44:03Z</time>
      </trkpt>
      <trkpt lat="49.05934" lon="1.83992">
        <ele>174</ele>
        <time>2023-01-10T09:45:37Z</time>
      </trkpt>
      <trkpt lat="49.05995" lon="1.84007">
        <ele>164</ele>
        <time>2023-01-10T09:47:00Z</time>
      </trkpt>
      <trkpt lat="49.06074" lon="1.84048">
        <ele>156</ele>
        <time>2023-01-10T09:48:51Z</time>
      </trkpt>
      <trkpt lat="49.06167" lon="1.84078">
        <ele>151</ele>
        <time>2023-01-10T09:50:58Z</time>
      </trkpt>
      <trkpt lat="49.06229" lon="1.84079">
        <ele>155</ele>
        <time>2023-01-10T09:52:21Z</time>
      </trkpt>
      <trkpt lat="49.0623" lon="1.84108">
        <ele>157</ele>
        <time>2023-01-10T09:52:46Z</time>
      </trkpt>
      <trkpt lat="49.06234" lon="1.84127">
        <ele>158</ele>
        <time>2023-01-10T09:53:03Z</time>
      </trkpt>
      <trkpt lat="49.06216" lon="1.84201">
        <ele>162</ele>
        <time>2023-01-10T09:54:13Z</time>
      </trkpt>
      <trkpt lat="49.06194" lon="1.84269">
        <ele>165</ele>
        <time>2023-01-10T09:55:19Z</time>
      </trkpt>
      <trkpt lat="49.06193" lon="1.84286">
        <ele>166</ele>
        <time>2023-01-10T09:55:34Z</time>
      </trkpt>
      <trkpt lat="49.06199" lon="1.84384">
        <ele>168</ele>
        <time>2023-01-10T09:57:00Z</time>
      </trkpt>
      <trkpt lat="49.06197" lon="1.84502">
        <ele>165</ele>
        <time>2023-01-10T09:58:43Z</time>
      </trkpt>
      <trkpt lat="49.06207" lon="1.8449">
        <ele>165</ele>
        <time>2023-01-10T09:59:00Z</time>
      </trkpt>
      <trkpt lat="49.06244" lon="1.84466">
        <ele>162</ele>
        <time>2023-01-10T09:59:54Z</time>
      </trkpt>
      <trkpt lat="49.06321" lon="1.84431">
        <ele>162</ele>
        <time>2023-01-10T10:01:41Z</time>
      </trkpt>
      <trkpt lat="49.06365" lon="1.84364">
        <ele>161</ele>
        <time>2023-01-10T10:03:04Z</time>
      </trkpt>
      <trkpt lat="49.06377" lon="1.84342">
        <ele>161</ele>
        <time>2023-01-10T10:03:29Z</time>
      </trkpt>
      <trkpt lat="49.06398" lon="1.84325">
        <ele>161</ele>
        <time>2023-01-10T10:04:01Z</time>
      </trkpt>
      <trkpt lat="49.06416" lon="1.84314">
        <ele>162</ele>
        <time>2023-01-10T10:04:26Z</time>
      </trkpt>
      <trkpt lat="49.06465" lon="1.84303">
        <ele>162</ele>
        <time>2023-01-10T10:05:33Z</time>
      </trkpt>
      <trkpt lat="49.06492" lon="1.84306">
        <ele>164</ele>
        <time>2023-01-10T10:06:09Z</time>
      </trkpt>
      <trkpt lat="49.06515" lon="1.84298">
        <ele>163</ele>
        <time>2023-01-10T10:06:40Z</time>
      </trkpt>
      <trkpt lat="49.06548" lon="1.84279">
        <ele>161</ele>
        <time>2023-01-10T10:07:27Z</time>
      </trkpt>
      <trkpt lat="49.06616" lon="1.84259">
        <ele>159</ele>
        <time>2023-01-10T10:09:00Z</time>
      </trkpt>
      <trkpt lat="49.06673" lon="1.84249">
        <ele>159</ele>
        <time>2023-01-10T10:10:16Z</time>
      </trkpt>
      <trkpt lat="49.06688" lon="1.84238">
        <ele>160</ele>
        <time>2023-01-10T10:10:38Z</time>
      </trkpt>
      <trkpt lat="49.0674" lon="1.84214">
        <ele>163</ele>
        <time>2023-01-10T10:11:51Z</time>
      </trkpt>
      <trkpt lat="49.06786" lon="1.84217">
        <ele>169</ele>
        <time>2023-01-10T10:12:52Z</time>
      </trkpt>
      <trkpt lat="49.068" lon="1.84215">
        <ele>171</ele>
        <time>2023-01-10T10:13:11Z</time>
      </trkpt>
      <trkpt lat="49.06843" lon="1.84202">
        <ele>176</ele>
        <time>2023-01-10T10:14:10Z</time>
      </trkpt>
      <trkpt lat="49.06864" lon="1.84193">
        <ele>178</ele>
        <time>2023-01-10T10:14:39Z</time>
      </trkpt>
      <trkpt lat="49.06899" lon="1.84165">
        <ele>183</ele>
        <time>2023-01-10T10:15:31Z</time>
      </trkpt>
      <trkpt lat="49.06908" lon="1.84153">
        <ele>185</ele>
        <time>2023-01-10T10:15:47Z</time>
      </trkpt>
      <trkpt lat="49.06946" lon="1.84031">
        <ele>194</ele>
        <time>2023-01-10T10:17:45Z</time>
      </trkpt>
      <trkpt lat="49.0697" lon="1.83936">
        <ele>197</ele>
        <time>2023-01-10T10:19:14Z</time>
      </trkpt>
      <trkpt lat="49.06987" lon="1.83892">
        <ele>198</ele>
        <time>2023-01-10T10:19:59Z</time>
      </trkpt>
      <trkpt lat="49.07041" lon="1.83831">
        <ele>200</ele>
        <time>2023-01-10T10:21:29Z</time>
      </trkpt>
      <trkpt lat="49.07064" lon="1.83791">
        <ele>202</ele>
        <time>2023-01-10T10:22:15Z</time>
      </trkpt>
      <trkpt lat="49.07096" lon="1.83754">
        <ele>204</ele>
        <time>2023-01-10T10:23:09Z</time>
      </trkpt>
      <trkpt lat="49.07126" lon="1.83742">
        <ele>204</ele>
        <time>2023-01-10T10:23:50Z</time>
      </trkpt>
      <trkpt lat="49.07139" lon="1.83725">
        <ele>204</ele>
        <time>2023-01-10T10:24:13Z</time>
      </trkpt>
      <trkpt lat="49.07225" lon="1.83576">
        <ele>203</ele>
        <time>2023-01-10T10:27:07Z</time>
      </trkpt>
      <trkpt lat="49.07248" lon="1.83548">
        <ele>204</ele>
        <time>2023-01-10T10:27:46Z</time>
      </trkpt>
      <trkpt lat="49.07317" lon="1.83486">
        <ele>202</ele>
        <time>2023-01-10T10:29:33Z</time>
      </trkpt>
      <trkpt lat="49.07345" lon="1.83409">
        <ele>204</ele>
        <time>2023-01-10T10:30:50Z</time>
      </trkpt>
      <trkpt lat="49.07371" lon="1.83357">
        <ele>203</ele>
        <time>2023-01-10T10:31:47Z</time>
      </trkpt>
      <trkpt lat="49.0738" lon="1.83315">
        <ele>204</ele>
        <time>2023-01-10T10:32:26Z</time>
      </trkpt>
      <trkpt lat="49.07394" lon="1.8327">
        <ele>204</ele>
        <time>2023-01-10T10:33:09Z</time>
      </trkpt>
      <trkpt lat="49.07426" lon="1.83193">
        <ele>206</ele>
        <time>2023-01-10T10:34:29Z</time>
      </trkpt>
      <trkpt lat="49.07449" lon="1.83152">
        <ele>206</ele>
        <time>2023-01-10T10:35:16Z</time>
      </trkpt>
      <trkpt lat="49.07514" lon="1.831">
        <ele>205</ele>
        <time>2023-01-10T10:36:54Z</time>
      </trkpt>
      <trkpt lat="49.07521" lon="1.83073">
        <ele>205</ele>
        <time>2023-01-10T10:37:19Z</time>
      </trkpt>
      <trkpt lat="49.07521" lon="1.83035">
        <ele>202</ele>
        <time>2023-01-10T10:37:53Z</time>
      </trkpt>
      <trkpt lat="49.07536" lon="1.83003">
        <ele>199</ele>
        <time>2023-01-10T10:38:27Z</time>
      </trkpt>
      <trkpt lat="49.07604" lon="1.82906">
        <ele>187</ele>
        <time>2023-01-10T10:40:31Z</time>
      </trkpt>
      <trkpt lat="49.07631" lon="1.82858">
        <ele>182</ele>
        <time>2023-01-10T10:41:27Z</time>
      </trkpt>
      <trkpt lat="49.07628" lon="1.82813">
        <ele>178</ele>
        <time>2023-01-10T10:42:06Z</time>
      </trkpt>
      <trkpt lat="49.07629" lon="1.82757">
        <ele>172</ele>
        <time>2023-01-10T10:42:55Z</time>
      </trkpt>
      <trkpt lat="49.07622" lon="1.82629">
        <ele>163</ele>
        <time>2023-01-10T10:44:47Z</time>
      </trkpt>
      <trkpt lat="49.07629" lon="1.82452">
        <ele>158</ele>
        <time>2023-01-10T10:47:22Z</time>
      </trkpt>
      <trkpt lat="49.07627" lon="1.82309">
        <ele>159</ele>
        <time>2023-01-10T10:49:27Z</time>
      </trkpt>
      <trkpt lat="49.07514" lon="1.822">
        <ele>157</ele>
        <time>2023-01-10T10:52:26Z</time>
      </trkpt>
      <trkpt lat="49.07477" lon="1.82158">
        <ele>152</ele>
        <time>2023-01-10T10:53:27Z</time>
      </trkpt>
      <trkpt lat="49.07334" lon="1.81981">
        <ele>137</ele>
        <time>2023-01-10T10:57:33Z</time>
      </trkpt>
      <trkpt lat="49.07269" lon="1.81884">
        <ele>135</ele>
        <time>2023-01-10T10:59:34Z</time>
      </trkpt>
      <trkpt lat="49.07245" lon="1.8188">
        <ele>134</ele>
        <time>2023-01-10T11:00:06Z</time>
      </trkpt>
      <trkpt lat="49.07216" lon="1.8187">
        <ele>135</ele>
        <time>2023-01-10T11:00:46Z</time>
      </trkpt>
      <trkpt lat="49.07114" lon="1.81789">
        <ele>141</ele>
        <time>2023-01-10T11:03:20Z</time>
      </trkpt>
      <trkpt lat="49.07088" lon="1.81776">
        <ele>144</ele>
        <time>2023-01-10T11:03:56Z</time>
      </trkpt>
      <trkpt lat="49.06902" lon="1.81731">
        <ele>159</ele>
        <time>2023-01-10T11:08:07Z</time>
      </trkpt>
      <trkpt lat="49.06859" lon="1.81733">
        <ele>162</ele>
        <time>2023-01-10T11:09:05Z</time>
      </trkpt>
      <trkpt lat="49.06812" lon="1.81743">
        <ele>163</ele>
        <time>2023-01-10T11:10:08Z</time>
      </trkpt>
      <trkpt lat="49.06796" lon="1.81742">
        <ele>164</ele>
        <time>2023-01-10T11:10:29Z</time>
      </trkpt>
      <trkpt lat="49.06781" lon="1.81732">
        <ele>166</ele>
        <time>2023-01-10T11:10:51Z</time>
      </trkpt>
      <trkpt lat="49.06756" lon="1.8169">
        <ele>172</ele>
        <time>2023-01-10T11:11:41Z</time>
      </trkpt>
      <trkpt lat="49.06744" lon="1.8168">
        <ele>173</ele>
        <time>2023-01-10T11:11:59Z</time>
      </trkpt>
      <trkpt lat="49.06714" lon="1.8167">
        <ele>172</ele>
        <time>2023-01-10T11:12:40Z</time>
      </trkpt>
      <trkpt lat="49.06698" lon="1.81657">
        <ele>172</ele>
        <time>2023-01-10T11:13:04Z</time>
      </trkpt>
      <trkpt lat="49.06679" lon="1.81622">
        <ele>174</ele>
        <time>2023-01-10T11:13:44Z</time>
      </trkpt>
      <trkpt lat="49.06648" lon="1.81582">
        <ele>175</ele>
        <time>2023-01-10T11:14:38Z</time>
      </trkpt>
      <trkpt lat="49.06626" lon="1.81558">
        <ele>176</ele>
        <time>2023-01-10T11:15:14Z</time>
      </trkpt>
      <trkpt lat="49.06555" lon="1.81497">
        <ele>180</ele>
        <time>2023-01-10T11:17:03Z</time>
      </trkpt>
      <trkpt lat="49.06583" lon="1.81502">
        <ele>181</ele>
        <time>2023-01-10T11:17:41Z</time>
      </trkpt>
      <trkpt lat="49.06592" lon="1.815">
        <ele>181</ele>
        <time>2023-01-10T11:17:53Z</time>
      </trkpt>
      <trkpt lat="49.06598" lon="1.81494">
        <ele>182</ele>
        <time>2023-01-10T11:18:02Z</time>
      </trkpt>
      <trkpt lat="49.06703" lon="1.81306">
        <ele>192</ele>
        <time>2023-01-10T11:21:38Z</time>
      </trkpt>
      <trkpt lat="49.068" lon="1.81118">
        <ele>192</ele>
        <time>2023-01-10T11:25:08Z</time>
      </trkpt>
      <trkpt lat="49.06826" lon="1.81081">
        <ele>192</ele>
        <time>2023-01-10T11:25:55Z</time>
      </trkpt>
      <trkpt lat="49.06894" lon="1.80997">
        <ele>195</ele>
        <time>2023-01-10T11:27:52Z</time>
      </trkpt>
      <trkpt lat="49.06926" lon="1.80967">
        <ele>196</ele>
        <time>2023-01-10T11:28:42Z</time>
      </trkpt>
      <trkpt lat="49.07059" lon="1.80886">
        <ele>197</ele>
        <time>2023-01-10T11:31:53Z</time>
      </trkpt>
      <trkpt lat="49.0716" lon="1.80816">
        <ele>197</ele>
        <time>2023-01-10T11:34:21Z</time>
      </trkpt>
      <trkpt lat="49.07168" lon="1.80799">
        <ele>197</ele>
        <time>2023-01-10T11:34:39Z</time>
      </trkpt>
      <trkpt lat="49.0717" lon="1.80782">
        <ele>198</ele>
        <time>2023-01-10T11:34:54Z</time>
      </trkpt>
      <trkpt lat="49.07167" lon="1.80761">
        <ele>198</ele>
        <time>2023-01-10T11:35:13Z</time>
      </trkpt>
      <trkpt lat="49.07147" lon="1.8071">
        <ele>199</ele>
        <time>2023-01-10T11:36:05Z</time>
      </trkpt>
      <trkpt lat="49.07142" lon="1.80686">
        <ele>200</ele>
        <time>2023-01-10T11:36:27Z</time>
      </trkpt>
      <trkpt lat="49.07146" lon="1.80631">
        <ele>202</ele>
        <time>2023-01-10T11:37:16Z</time>
      </trkpt>
      <trkpt lat="49.07145" lon="1.80571">
        <ele>203</ele>
        <time>2023-01-10T11:38:08Z</time>
      </trkpt>
      <trkpt lat="49.07129" lon="1.80455">
        <ele>204</ele>
        <time>2023-01-10T11:39:52Z</time>
      </trkpt>
      <trkpt lat="49.07099" lon="1.80307">
        <ele>206</ele>
        <time>2023-01-10T11:42:07Z</time>
      </trkpt>
      <trkpt lat="49.0708" lon="1.80168">
        <ele>207</ele>
        <time>2023-01-10T11:44:11Z</time>
      </trkpt>
      <trkpt lat="49.07066" lon="1.8012">
        <ele>207</ele>
        <time>2023-01-10T11:44:57Z</time>
      </trkpt>
      <trkpt lat="49.07029" lon="1.80019">
        <ele>205</ele>
        <time>2023-01-10T11:46:38Z</time>
      </trkpt>
      <trkpt lat="49.06933" lon="1.79783">
        <ele>203</ele>
        <time>2023-01-10T11:50:41Z</time>
      </trkpt>
      <trkpt lat="49.069" lon="1.79717">
        <ele>204</ele>
        <time>2023-01-10T11:51:54Z</time>
      </trkpt>
      <trkpt lat="49.06887" lon="1.79685">
        <ele>204</ele>
        <time>2023-01-10T11:52:27Z</time>
      </trkpt>
      <trkpt lat="49.06873" lon="1.79663">
        <ele>203</ele>
        <time>2023-01-10T11:52:54Z</time>
      </trkpt>
      <trkpt lat="49.06866" lon="1.79656">
        <ele>203</ele>
        <time>2023-01-10T11:53:05Z</time>
      </trkpt>
      <trkpt lat="49.06848" lon="1.79651">
        <ele>202</ele>
        <time>2023-01-10T11:53:29Z</time>
      </trkpt>
      <trkpt lat="49.06822" lon="1.79651">
        <ele>200</ele>
        <time>2023-01-10T11:54:04Z</time>
      </trkpt>
      <trkpt lat="49.06748" lon="1.79659">
        <ele>198</ele>
        <time>2023-01-10T11:55:43Z</time>
      </trkpt>
      <trkpt lat="49.06718" lon="1.79655">
        <ele>197</ele>
        <time>2023-01-10T11:56:23Z</time>
      </trkpt>
      <trkpt lat="49.06686" lon="1.79645">
        <ele>195</ele>
        <time>2023-01-10T11:57:07Z</time>
      </trkpt>
      <trkpt lat="49.06657" lon="1.79642">
        <ele>193</ele>
        <time>2023-01-10T11:57:45Z</time>
      </trkpt>
      <trkpt lat="49.06629" lon="1.79649">
        <ele>190</ele>
        <time>2023-01-10T11:58:23Z</time>
      </trkpt>
      <trkpt lat="49.06623" lon="1.79648">
        <ele>190</ele>
        <time>2023-01-10T11:58:31Z</time>
      </trkpt>
      <trkpt lat="49.06598" lon="1.79609">
        <ele>184</ele>
        <time>2023-01-10T11:59:19Z</time>
      </trkpt>
      <trkpt lat="49.06564" lon="1.79565">
        <ele>179</ele>
        <time>2023-01-10T12:00:18Z</time>
      </trkpt>
      <trkpt lat="49.06508" lon="1.79467">
        <ele>168</ele>
        <time>2023-01-10T12:02:12Z</time>
      </trkpt>
      <trkpt lat="49.06508" lon="1.79417">
        <ele>164</ele>
        <time>2023-01-10T12:02:56Z</time>
      </trkpt>
      <trkpt lat="49.06565" lon="1.79384">
        <ele>162</ele>
        <time>2023-01-10T12:04:17Z</time>
      </trkpt>
      <trkpt lat="49.06581" lon="1.79326">
        <ele>156</ele>
        <time>2023-01-10T12:05:12Z</time>
      </trkpt>
      <trkpt lat="49.06613" lon="1.79243">
        <ele>154</ele>
        <time>2023-01-10T12:06:36Z</time>
      </trkpt>
      <trkpt lat="49.06607" lon="1.79155">
        <ele>148</ele>
        <time>2023-01-10T12:07:54Z</time>
      </trkpt>
      <trkpt lat="49.066" lon="1.79115">
        <ele>146</ele>
        <time>2023-01-10T12:08:30Z</time>
      </trkpt>
      <trkpt lat="49.0659" lon="1.79079">
        <ele>144</ele>
        <time>2023-01-10T12:09:04Z</time>
      </trkpt>
      <trkpt lat="49.06562" lon="1.7903">
        <ele>139</ele>
        <time>2023-01-10T12:10:01Z</time>
      </trkpt>
      <trkpt lat="49.06551" lon="1.79004">
        <ele>137</ele>
        <time>2023-01-10T12:10:28Z</time>
      </trkpt>
      <trkpt lat="49.06541" lon="1.78864">
        <ele>132</ele>
        <time>2023-01-10T12:12:31Z</time>
      </trkpt>
      <trkpt lat="49.065" lon="1.78689">
        <ele>123</ele>
        <time>2023-01-10T12:15:14Z</time>
      </trkpt>
      <trkpt lat="49.06468" lon="1.78578">
        <ele>119</ele>
        <time>2023-01-10T12:17:00Z</time>
      </trkpt>
      <trkpt lat="49.06427" lon="1.78368">
        <ele>132</ele>
        <time>2023-01-10T12:20:11Z</time>
      </trkpt>
      <trkpt lat="49.06412" lon="1.78309">
        <ele>136</ele>
        <time>2023-01-10T12:21:07Z</time>
      </trkpt>
      <trkpt lat="49.06387" lon="1.78231">
        <ele>140</ele>
        <time>2023-01-10T12:22:23Z</time>
      </trkpt>
      <trkpt lat="49.06358" lon="1.78154">
        <ele>141</ele>
        <time>2023-01-10T12:23:40Z</time>
      </trkpt>
      <trkpt lat="49.06221" lon="1.77837">
        <ele>139</ele>
        <time>2023-01-10T12:29:12Z</time>
      </trkpt>
      <trkpt lat="49.05935" lon="1.77955">
        <ele>133</ele>
        <time>2023-01-10T12:35:48Z</time>
      </trkpt>
      <trkpt lat="49.05873" lon="1.7799">
        <ele>130</ele>
        <time>2023-01-10T12:37:16Z</time>
      </trkpt>
      <trkpt lat="49.05848" lon="1.78009">
        <ele>129</ele>
        <time>2023-01-10T12:37:53Z</time>
      </trkpt>
      <trkpt lat="49.05787" lon="1.77977">
        <ele>126</ele>
        <time>2023-01-10T12:39:19Z</time>
      </trkpt>
      <trkpt lat="49.05663" lon="1.77963">
        <ele>130</ele>
        <time>2023-01-10T12:42:05Z</time>
      </trkpt>
      <trkpt lat="49.05617" lon="1.77961">
        <ele>132</ele>
        <time>2023-01-10T12:43:07Z</time>
      </trkpt>
      <trkpt lat="49.05599" lon="1.77953">
        <ele>133</ele>
        <time>2023-01-10T12:43:32Z</time>
      </trkpt>
      <trkpt lat="49.05447" lon="1.77796">
        <ele>142</ele>
        <time>2023-01-10T12:47:37Z</time>
      </trkpt>
      <trkpt lat="49.05447" lon="1.77783">
        <ele>142</ele>
        <time>2023-01-10T12:47:48Z</time>
      </trkpt>
      <trkpt lat="49.05473" lon="1.777">
        <ele>142</ele>
        <time>2023-01-10T12:49:08Z</time>
      </trkpt>
      <trkpt lat="49.0547" lon="1.7769">
        <ele>142</ele>
        <time>2023-01-10T12:49:18Z</time>
      </trkpt>
      <trkpt lat="49.05423" lon="1.77643">
        <ele>142</ele>
        <time>2023-01-10T12:50:33Z</time>
      </trkpt>
      <trkpt lat="49.0524" lon="1.77428">
        <ele>139</ele>
        <time>2023-01-10T12:55:41Z</time>
      </trkpt>
      <trkpt lat="49.05221" lon="1.77464">
        <ele>138</ele>
        <time>2023-01-10T12:56:22Z</time>
      </trkpt>
      <trkpt lat="49.05157" lon="1.77613">
        <ele>138</ele>
        <time>2023-01-10T12:58:57Z</time>
      </trkpt>
      <trkpt lat="49.04945" lon="1.78294">
        <ele>145</ele>
        <time>2023-01-10T13:09:57Z</time>
      </trkpt>
      <trkpt lat="49.04912" lon="1.78365">
        <ele>144</ele>
        <time>2023-01-10T13:11:13Z</time>
      </trkpt>
      <trkpt lat="49.04817" lon="1.78692">
        <ele>137</ele>
        <time>2023-01-10T13:16:26Z</time>
      </trkpt>
      <trkpt lat="49.04802" lon="1.78721">
        <ele>135</ele>
        <time>2023-01-10T13:16:58Z</time>
      </trkpt>
      <trkpt lat="49.04724" lon="1.78791">
        <ele>129</ele>
        <time>2023-01-10T13:18:59Z</time>
      </trkpt>
      <trkpt lat="49.04655" lon="1.7886">
        <ele>124</ele>
        <time>2023-01-10T13:20:49Z</time>
      </trkpt>
      <trkpt lat="49.04583" lon="1.78926">
        <ele>121</ele>
        <time>2023-01-10T13:22:41Z</time>
      </trkpt>
      <trkpt lat="49.04549" lon="1.78941">
        <ele>118</ele>
        <time>2023-01-10T13:23:28Z</time>
      </trkpt>
      <trkpt lat="49.04538" lon="1.78942">
        <ele>117</ele>
        <time>2023-01-10T13:23:43Z</time>
      </trkpt>
      <trkpt lat="49.04516" lon="1.78938">
        <ele>116</ele>
        <time>2023-01-10T13:24:13Z</time>
      </trkpt>
      <trkpt lat="49.04508" lon="1.78935">
        <ele>115</ele>
        <time>2023-01-10T13:24:23Z</time>
      </trkpt>
      <trkpt lat="49.04492" lon="1.78921">
        <ele>115</ele>
        <time>2023-01-10T13:24:48Z</time>
      </trkpt>
      <trkpt lat="49.04457" lon="1.78874">
        <ele>118</ele>
        <time>2023-01-10T13:25:50Z</time>
      </trkpt>
      <trkpt lat="49.04448" lon="1.78864">
        <ele>118</ele>
        <time>2023-01-10T13:26:05Z</time>
      </trkpt>
      <trkpt lat="49.04437" lon="1.78857">
        <ele>118</ele>
        <time>2023-01-10T13:26:21Z</time>
      </trkpt>
      <trkpt lat="49.04405" lon="1.7885">
        <ele>118</ele>
        <time>2023-01-10T13:27:04Z</time>
      </trkpt>
      <trkpt lat="49.04347" lon="1.78851">
        <ele>119</ele>
        <time>2023-01-10T13:28:22Z</time>
      </trkpt>
      <trkpt lat="49.04256" lon="1.78871">
        <ele>124</ele>
        <time>2023-01-10T13:30:24Z</time>
      </trkpt>
      <trkpt lat="49.04217" lon="1.78887">
        <ele>125</ele>
        <time>2023-01-10T13:31:18Z</time>
      </trkpt>
      <trkpt lat="49.04071" lon="1.78958">
        <ele>128</ele>
        <time>2023-01-10T13:34:43Z</time>
      </trkpt>
      <trkpt lat="49.0355" lon="1.79451">
        <ele>132</ele>
        <time>2023-01-10T13:48:21Z</time>
      </trkpt>
      <trkpt lat="49.03484" lon="1.79331">
        <ele>133</ele>
        <time>2023-01-10T13:50:38Z</time>
      </trkpt>
      <trkpt lat="49.03439" lon="1.79218">
        <ele>136</ele>
        <time>2023-01-10T13:52:34Z</time>
      </trkpt>
      <trkpt lat="49.03376" lon="1.79151">
        <ele>140</ele>
        <time>2023-01-10T13:54:16Z</time>
      </trkpt>
      <trkpt lat="49.03311" lon="1.79046">
        <ele>150</ele>
        <time>2023-01-10T13:56:22Z</time>
      </trkpt>
      <trkpt lat="49.03112" lon="1.78534">
        <ele>173</ele>
        <time>2023-01-10T14:05:03Z</time>
      </trkpt>
      <trkpt lat="49.03079" lon="1.78534">
        <ele>174</ele>
        <time>2023-01-10T14:05:47Z</time>
      </trkpt>
      <trkpt lat="49.03021" lon="1.78516">
        <ele>175</ele>
        <time>2023-01-10T14:07:06Z</time>
      </trkpt>
      <trkpt lat="49.02994" lon="1.78514">
        <ele>177</ele>
        <time>2023-01-10T14:07:42Z</time>
      </trkpt>
      <trkpt lat="49.02955" lon="1.78502">
        <ele>182</ele>
        <time>2023-01-10T14:08:35Z</time>
      </trkpt>
      <trkpt lat="49.02911" lon="1.78485">
        <ele>186</ele>
        <time>2023-01-10T14:09:36Z</time>
      </trkpt>
      <trkpt lat="49.02853" lon="1.7848">
        <ele>190</ele>
        <time>2023-01-10T14:10:53Z</time>
      </trkpt>
      <trkpt lat="49.02805" lon="1.78493">
        <ele>192</ele>
        <time>2023-01-10T14:11:59Z</time>
      </trkpt>
      <trkpt lat="49.02702" lon="1.78549">
        <ele>193</ele>
        <time>2023-01-10T14:14:24Z</time>
      </trkpt>
      <trkpt lat="49.02641" lon="1.78591">
        <ele>194</ele>
        <time>2023-01-10T14:15:54Z</time>
      </trkpt>
      <trkpt lat="49.02601" lon="1.7862">
        <ele>194</ele>
        <time>2023-01-10T14:16:53Z</time>
      </trkpt>
      <trkpt lat="49.0257" lon="1.78648">
        <ele>195</ele>
        <time>2023-01-10T14:17:41Z</time>
      </trkpt>
      <trkpt lat="49.02518" lon="1.78686">
        <ele>196</ele>
        <time>2023-01-10T14:18:58Z</time>
      </trkpt>
      <trkpt lat="49.02503" lon="1.78703">
        <ele>196</ele>
        <time>2023-01-10T14:19:23Z</time>
      </trkpt>
      <trkpt lat="49.0248" lon="1.78744">
        <ele>196</ele>
        <time>2023-01-10T14:20:10Z</time>
      </trkpt>
      <trkpt lat="49.02362" lon="1.79025">
        <ele>190</ele>
        <time>2023-01-10T14:25:02Z</time>
      </trkpt>
      <trkpt lat="49.0236" lon="1.78886">
        <ele>193</ele>
        <time>2023-01-10T14:27:04Z</time>
      </trkpt>
      <trkpt lat="49.02294" lon="1.78897">
        <ele>187</ele>
        <time>2023-01-10T14:28:32Z</time>
      </trkpt>
      <trkpt lat="49.02257" lon="1.78893">
        <ele>182</ele>
        <time>2023-01-10T14:29:22Z</time>
      </trkpt>
      <trkpt lat="49.02195" lon="1.78866">
        <ele>173</ele>
        <time>2023-01-10T14:30:48Z</time>
      </trkpt>
      <trkpt lat="49.02173" lon="1.78868">
        <ele>169</ele>
        <time>2023-01-10T14:31:17Z</time>
      </trkpt>
      <trkpt lat="49.02172" lon="1.78908">
        <ele>170</ele>
        <time>2023-01-10T14:31:52Z</time>
      </trkpt>
      <trkpt lat="49.0214" lon="1.79105">
        <ele>165</ele>
        <time>2023-01-10T14:34:50Z</time>
      </trkpt>
      <trkpt lat="49.02132" lon="1.79142">
        <ele>165</ele>
        <time>2023-01-10T14:35:24Z</time>
      </trkpt>
      <trkpt lat="49.02113" lon="1.79203">
        <ele>163</ele>
        <time>2023-01-10T14:36:23Z</time>
      </trkpt>
      <trkpt lat="49.02106" lon="1.79258">
        <ele>162</ele>
        <time>2023-01-10T14:37:12Z</time>
      </trkpt>
      <trkpt lat="49.02094" lon="1.79324">
        <ele>161</ele>
        <time>2023-01-10T14:38:12Z</time>
      </trkpt>
      <trkpt lat="49.02093" lon="1.79387">
        <ele>162</ele>
        <time>2023-01-10T14:39:07Z</time>
      </trkpt>
      <trkpt lat="49.02097" lon="1.79429">
        <ele>163</ele>
        <time>2023-01-10T14:39:44Z</time>
      </trkpt>
      <trkpt lat="49.02082" lon="1.79467">
        <ele>162</ele>
        <time>2023-01-10T14:40:23Z</time>
      </trkpt>
      <trkpt lat="49.02056" lon="1.79497">
        <ele>160</ele>
        <time>2023-01-10T14:41:07Z</time>
      </trkpt>
      <trkpt lat="49.02026" lon="1.79524">
        <ele>160</ele>
        <time>2023-01-10T14:41:53Z</time>
      </trkpt>
      <trkpt lat="49.0205" lon="1.79594">
        <ele>163</ele>
        <time>2023-01-10T14:43:02Z</time>
      </trkpt>
      <trkpt lat="49.02095" lon="1.79806">
        <ele>169</ele>
        <time>2023-01-10T14:46:17Z</time>
      </trkpt>
      <trkpt lat="49.02075" lon="1.79793">
        <ele>170</ele>
        <time>2023-01-10T14:46:46Z</time>
      </trkpt>
      <trkpt lat="49.02046" lon="1.79786">
        <ele>172</ele>
        <time>2023-01-10T14:47:25Z</time>
      </trkpt>
      <trkpt lat="49.01994" lon="1.79775">
        <ele>174</ele>
        <time>2023-01-10T14:48:36Z</time>
      </trkpt>
      <trkpt lat="49.01963" lon="1.79775">
        <ele>174</ele>
        <time>2023-01-10T14:49:17Z</time>
      </trkpt>
      <trkpt lat="49.01913" lon="1.79789">
        <ele>173</ele>
        <time>2023-01-10T14:50:25Z</time>
      </trkpt>
      <trkpt lat="49.01884" lon="1.79805">
        <ele>172</ele>
        <time>2023-01-10T14:51:06Z</time>
      </trkpt>
      <trkpt lat="49.01876" lon="1.79815">
        <ele>173</ele>
        <time>2023-01-10T14:51:20Z</time>
      </trkpt>
      <trkpt lat="49.01873" lon="1.79823">
        <ele>173</ele>
        <time>2023-01-10T14:51:28Z</time>
      </trkpt>
      <trkpt lat="49.01857" lon="1.79823">
        <ele>172</ele>
        <time>2023-01-10T14:51:49Z</time>
      </trkpt>
      <trkpt lat="49.01852" lon="1.79818">
        <ele>171</ele>
        <time>2023-01-10T14:51:57Z</time>
      </trkpt>
      <trkpt lat="49.01843" lon="1.79817">
        <ele>170</ele>
        <time>2023-01-10T14:52:09Z</time>
      </trkpt>
      <trkpt lat="49.01781" lon="1.79838">
        <ele>169</ele>
        <time>2023-01-10T14:53:34Z</time>
      </trkpt>
      <trkpt lat="49.01679" lon="1.79863">
        <ele>168</ele>
        <time>2023-01-10T14:55:52Z</time>
      </trkpt>
      <trkpt lat="49.01603" lon="1.79888">
        <ele>166</ele>
        <time>2023-01-10T14:57:35Z</time>
      </trkpt>
      <trkpt lat="49.01561" lon="1.79914">
        <ele>167</ele>
        <time>2023-01-10T14:58:36Z</time>
      </trkpt>
      <trkpt lat="49.01552" lon="1.79912">
        <ele>167</ele>
        <time>2023-01-10T14:58:48Z</time>
      </trkpt>
      <trkpt lat="49.01537" lon="1.79902">
        <ele>166</ele>
        <time>2023-01-10T14:59:10Z</time>
      </trkpt>
      <trkpt lat="49.01505" lon="1.79911">
        <ele>166</ele>
        <time>2023-01-10T14:59:53Z</time>
      </trkpt>
      <trkpt lat="49.01347" lon="1.7994">
        <ele>167</ele>
        <time>2023-01-10T15:03:26Z</time>
      </trkpt>
      <trkpt lat="49.01276" lon="1.79946">
        <ele>166</ele>
        <time>2023-01-10T15:05:01Z</time>
      </trkpt>
      <trkpt lat="49.01251" lon="1.79946">
        <ele>165</ele>
        <time>2023-01-10T15:05:34Z</time>
      </trkpt>
      <trkpt lat="49.01197" lon="1.80055">
        <ele>168</ele>
        <time>2023-01-10T15:07:34Z</time>
      </trkpt>
      <trkpt lat="49.01292" lon="1.80242">
        <ele>193</ele>
        <time>2023-01-10T15:11:01Z</time>
      </trkpt>
      <trkpt lat="49.01335" lon="1.8039">
        <ele>202</ele>
        <time>2023-01-10T15:13:22Z</time>
      </trkpt>
      <trkpt lat="49.01365" lon="1.80484">
        <ele>200</ele>
        <time>2023-01-10T15:14:54Z</time>
      </trkpt>
      <trkpt lat="49.01371" lon="1.80555">
        <ele>199</ele>
        <time>2023-01-10T15:15:56Z</time>
      </trkpt>
      <trkpt lat="49.01343" lon="1.8076">
        <ele>194</ele>
        <time>2023-01-10T15:19:00Z</time>
      </trkpt>
      <trkpt lat="49.01301" lon="1.80954">
        <ele>188</ele>
        <time>2023-01-10T15:21:59Z</time>
      </trkpt>
      <trkpt lat="49.01281" lon="1.81073">
        <ele>185</ele>
        <time>2023-01-10T15:23:46Z</time>
      </trkpt>
      <trkpt lat="49.01273" lon="1.81091">
        <ele>185</ele>
        <time>2023-01-10T15:24:05Z</time>
      </trkpt>
      <trkpt lat="49.01277" lon="1.81105">
        <ele>186</ele>
        <time>2023-01-10T15:24:18Z</time>
      </trkpt>
      <trkpt lat="49.01269" lon="1.81165">
        <ele>187</ele>
        <time>2023-01-10T15:25:12Z</time>
      </trkpt>
      <trkpt lat="49.01251" lon="1.81201">
        <ele>186</ele>
        <time>2023-01-10T15:25:52Z</time>
      </trkpt>
      <trkpt lat="49.01263" lon="1.81246">
        <ele>189</ele>
        <time>2023-01-10T15:26:34Z</time>
      </trkpt>
      <trkpt lat="49.0126" lon="1.81262">
        <ele>189</ele>
        <time>2023-01-10T15:26:49Z</time>
      </trkpt>
      <trkpt lat="49.01251" lon="1.81278">
        <ele>189</ele>
        <time>2023-01-10T15:27:07Z</time>
      </trkpt>
      <trkpt lat="49.01215" lon="1.8154">
        <ele>192</ele>
        <time>2023-01-10T15:31:01Z</time>
      </trkpt>
      <trkpt lat="49.01217" lon="1.81587">
        <ele>193</ele>
        <time>2023-01-10T15:31:43Z</time>
      </trkpt>
      <trkpt lat="49.0122" lon="1.81593">
        <ele>193</ele>
        <time>2023-01-10T15:31:49Z</time>
      </trkpt>
      <trkpt lat="49.01232" lon="1.81599">
        <ele>194</ele>
        <time>2023-01-10T15:32:06Z</time>
      </trkpt>
      <trkpt lat="49.01228" lon="1.81629">
        <ele>194</ele>
        <time>2023-01-10T15:32:33Z</time>
      </trkpt>
      <trkpt lat="49.01236" lon="1.8164">
        <ele>194</ele>
        <time>2023-01-10T15:32:47Z</time>
      </trkpt>
      <trkpt lat="49.01234" lon="1.81681">
        <ele>194</ele>
        <time>2023-01-10T15:33:23Z</time>
      </trkpt>
      <trkpt lat="49.01227" lon="1.81737">
        <ele>194</ele>
        <time>2023-01-10T15:34:13Z</time>
      </trkpt>
      <trkpt lat="49.01186" lon="1.81957">
        <ele>189</ele>
        <time>2023-01-10T15:37:33Z</time>
      </trkpt>
      <trkpt lat="49.01184" lon="1.82028">
        <ele>188</ele>
        <time>2023-01-10T15:38:36Z</time>
      </trkpt>
      <trkpt lat="49.01186" lon="1.82231">
        <ele>185</ele>
        <time>2023-01-10T15:41:33Z</time>
      </trkpt>
      <trkpt lat="49.01201" lon="1.82289">
        <ele>187</ele>
        <time>2023-01-10T15:42:28Z</time>
      </trkpt>
      <trkpt lat="49.01224" lon="1.8248">
        <ele>187</ele>
        <time>2023-01-10T15:45:18Z</time>
      </trkpt>
      <trkpt lat="49.01277" lon="1.82557">
        <ele>188</ele>
        <time>2023-01-10T15:46:56Z</time>
      </trkpt>
      <trkpt lat="49.01285" lon="1.82594">
        <ele>187</ele>
        <time>2023-01-10T15:47:30Z</time>
      </trkpt>
      <trkpt lat="49.01268" lon="1.82741">
        <ele>186</ele>
        <time>2023-01-10T15:49:40Z</time>
      </trkpt>
      <trkpt lat="49.01215" lon="1.82978">
        <ele>184</ele>
        <time>2023-01-10T15:53:19Z</time>
      </trkpt>
      <trkpt lat="49.01211" lon="1.83035">
        <ele>182</ele>
        <time>2023-01-10T15:54:10Z</time>
      </trkpt>
      <trkpt lat="49.0121" lon="1.83093">
        <ele>180</ele>
        <time>2023-01-10T15:55:00Z</time>
      </trkpt>
      <trkpt lat="49.01212" lon="1.83133">
        <ele>180</ele>
        <time>2023-01-10T15:55:36Z</time>
      </trkpt>
      <trkpt lat="49.01196" lon="1.8315">
        <ele>178</ele>
        <time>2023-01-10T15:56:02Z</time>
      </trkpt>
      <trkpt lat="49.01148" lon="1.83289">
        <ele>176</ele>
        <time>2023-01-10T15:58:19Z</time>
      </trkpt>
      <trkpt lat="49.01129" lon="1.83335">
        <ele>175</ele>
        <time>2023-01-10T15:59:07Z</time>
      </trkpt>
      <trkpt lat="49.01121" lon="1.83359">
        <ele>176</ele>
        <time>2023-01-10T15:59:30Z</time>
      </trkpt>
      <trkpt lat="49.01093" lon="1.83478">
        <ele>183</ele>
        <time>2023-01-10T16:01:21Z</time>
      </trkpt>
      <trkpt lat="49.01131" lon="1.83559">
        <ele>185</ele>
        <time>2023-01-10T16:02:48Z</time>
      </trkpt>
      <trkpt lat="49.01191" lon="1.83645">
        <ele>186</ele>
        <time>2023-01-10T16:04:38Z</time>
      </trkpt>
      <trkpt lat="49.01213" lon="1.83682">
        <ele>186</ele>
        <time>2023-01-10T16:05:22Z</time>
      </trkpt>
      <trkpt lat="49.013" lon="1.83954">
        <ele>184</ele>
        <time>2023-01-10T16:09:46Z</time>
      </trkpt>
      <trkpt lat="49.01327" lon="1.84063">
        <ele>182</ele>
        <time>2023-01-10T16:11:28Z</time>
      </trkpt>
      <trkpt lat="49.01367" lon="1.84303">
        <ele>173</ele>
        <time>2023-01-10T16:15:05Z</time>
      </trkpt>
      <trkpt lat="49.01362" lon="1.84364">
        <ele>171</ele>
        <time>2023-01-10T16:15:59Z</time>
      </trkpt>
      <trkpt lat="49.01366" lon="1.8437">
        <ele>171</ele>
        <time>2023-01-10T16:16:06Z</time>
      </trkpt>
      <trkpt lat="49.01363" lon="1.84396">
        <ele>170</ele>
        <time>2023-01-10T16:16:30Z</time>
      </trkpt>
      <trkpt lat="49.01358" lon="1.84426">
        <ele>169</ele>
        <time>2023-01-10T16:16:57Z</time>
      </trkpt>
      <trkpt lat="49.01349" lon="1.8446">
        <ele>169</ele>
        <time>2023-01-10T16:17:29Z</time>
      </trkpt>
      <trkpt lat="49.01342" lon="1.84519">
        <ele>169</ele>
        <time>2023-01-10T16:18:21Z</time>
      </trkpt>
      <trkpt lat="49.01347" lon="1.84589">
        <ele>165</ele>
        <time>2023-01-10T16:19:23Z</time>
      </trkpt>
      <trkpt lat="49.01353" lon="1.84602">
        <ele>163</ele>
        <time>2023-01-10T16:19:37Z</time>
      </trkpt>
      <trkpt lat="49.01366" lon="1.84606">
        <ele>162</ele>
        <time>2023-01-10T16:19:55Z</time>
      </trkpt>
      <trkpt lat="49.01418" lon="1.84601">
        <ele>159</ele>
        <time>2023-01-10T16:21:04Z</time>
      </trkpt>
      <trkpt lat="49.01427" lon="1.84606">
        <ele>158</ele>
        <time>2023-01-10T16:21:17Z</time>
      </trkpt>
      <trkpt lat="49.01462" lon="1.84755">
        <ele>159</ele>
        <time>2023-01-10T16:23:35Z</time>
      </trkpt>
      <trkpt lat="49.01555" lon="1.84779">
        <ele>149</ele>
        <time>2023-01-10T16:25:41Z</time>
      </trkpt>
      <trkpt lat="49.01586" lon="1.84764">
        <ele>145</ele>
        <time>2023-01-10T16:26:25Z</time>
      </trkpt>
      <trkpt lat="49.01624" lon="1.84786">
        <ele>139</ele>
        <time>2023-01-10T16:27:19Z</time>
      </trkpt>
      <trkpt lat="49.01669" lon="1.84845">
        <ele>129</ele>
        <time>2023-01-10T16:28:38Z</time>
      </trkpt>
      <trkpt lat="49.0177" lon="1.84922">
        <ele>122</ele>
        <time>2023-01-10T16:31:09Z</time>
      </trkpt>
      <trkpt lat="49.01685" lon="1.85131">
        <ele>134</ele>
        <time>2023-01-10T16:34:44Z</time>
      </trkpt>
      <trkpt lat="49.01647" lon="1.85195">
        <ele>131</ele>
        <time>2023-01-10T16:36:00Z</time>
      </trkpt>
      <trkpt lat="49.01634" lon="1.85225">
        <ele>129</ele>
        <time>2023-01-10T16:36:31Z</time>
      </trkpt>
      <trkpt lat="49.01612" lon="1.85305">
        <ele>124</ele>
        <time>2023-01-10T16:37:47Z</time>
      </trkpt>
      <trkpt lat="49.01545" lon="1.85507">
        <ele>119</ele>
        <time>2023-01-10T16:41:05Z</time>
      </trkpt>
      <trkpt lat="49.01527" lon="1.85583">
        <ele>118</ele>
        <time>2023-01-10T16:42:16Z</time>
      </trkpt>
      <trkpt lat="49.01511" lon="1.85615">
        <ele>119</ele>
        <time>2023-01-10T16:42:51Z</time>
      </trkpt>
      <trkpt lat="49.01475" lon="1.85731">
        <ele>121</ele>
        <time>2023-01-10T16:44:43Z</time>
      </trkpt>
      <trkpt lat="49.01446" lon="1.85773">
        <ele>120</ele>
        <time>2023-01-10T16:45:37Z</time>
      </trkpt>
      <trkpt lat="49.01398" lon="1.85863">
        <ele>119</ele>
        <time>2023-01-10T16:47:18Z</time>
      </trkpt>
      <trkpt lat="49.01389" lon="1.85911">
        <ele>119</ele>
        <time>2023-01-10T16:48:02Z</time>
      </trkpt>
      <trkpt lat="49.01401" lon="1.86124">
        <ele>115</ele>
        <time>2023-01-10T16:51:09Z</time>
      </trkpt>
      <trkpt lat="49.01458" lon="1.86148">
        <ele>108</ele>
        <time>2023-01-10T16:52:28Z</time>
      </trkpt>
      <trkpt lat="49.01478" lon="1.86153">
        <ele>106</ele>
        <time>2023-01-10T16:52:55Z</time>
      </trkpt>
      <trkpt lat="49.01531" lon="1.86142">
        <ele>101</ele>
        <time>2023-01-10T16:54:06Z</time>
      </trkpt>
      <trkpt lat="49.01671" lon="1.86158">
        <ele>86</ele>
        <time>2023-01-10T16:57:14Z</time>
      </trkpt>
      <trkpt lat="49.01702" lon="1.86174">
        <ele>84</ele>
        <time>2023-01-10T16:57:57Z</time>
      </trkpt>
      <trkpt lat="49.01721" lon="1.86193">
        <ele>83</ele>
        <time>2023-01-10T16:58:28Z</time>
      </trkpt>
      <trkpt lat="49.01734" lon="1.86202">
        <ele>82</ele>
        <time>2023-01-10T16:58:47Z</time>
      </trkpt>
      <trkpt lat="49.01751" lon="1.86208">
        <ele>81</ele>
        <time>2023-01-10T16:59:10Z</time>
      </trkpt>
      <trkpt lat="49.01761" lon="1.86267">
        <ele>85</ele>
        <time>2023-01-10T17:00:03Z</time>
      </trkpt>
      <trkpt lat="49.01762" lon="1.86326">
        <ele>88</ele>
        <time>2023-01-10T17:00:55Z</time>
      </trkpt>
      <trkpt lat="49.01746" lon="1.86402">
        <ele>94</ele>
        <time>2023-01-10T17:02:05Z</time>
      </trkpt>
      <trkpt lat="49.01742" lon="1.86463">
        <ele>97</ele>
        <time>2023-01-10T17:02:59Z</time>
      </trkpt>
      <trkpt lat="49.01729" lon="1.8652">
        <ele>99</ele>
        <time>2023-01-10T17:03:51Z</time>
      </trkpt>
      <trkpt lat="49.01709" lon="1.86561">
        <ele>98</ele>
        <time>2023-01-10T17:04:36Z</time>
      </trkpt>
      <trkpt lat="49.01688" lon="1.86597">
        <ele>99</ele>
        <time>2023-01-10T17:05:18Z</time>
      </trkpt>
      <trkpt lat="49.01614" lon="1.86711">
        <ele>106</ele>
        <time>2023-01-10T17:07:39Z</time>
      </trkpt>
      <trkpt lat="49.01592" lon="1.86749">
        <ele>108</ele>
        <time>2023-01-10T17:08:23Z</time>
      </trkpt>
      <trkpt lat="49.01566" lon="1.86812">
        <ele>108</ele>
        <time>2023-01-10T17:09:28Z</time>
      </trkpt>
      <trkpt lat="49.01512" lon="1.871">
        <ele>106</ele>
        <time>2023-01-10T17:13:50Z</time>
      </trkpt>
      <trkpt lat="49.01425" lon="1.87381">
        <ele>105</ele>
        <time>2023-01-10T17:18:22Z</time>
      </trkpt>
      <trkpt lat="49.014" lon="1.87469">
        <ele>105</ele>
        <time>2023-01-10T17:19:46Z</time>
      </trkpt>
      <trkpt lat="49.01507" lon="1.87464">
        <ele>103</ele>
        <time>2023-01-10T17:22:09Z</time>
      </trkpt>
      <trkpt lat="49.01509" lon="1.87762">
        <ele>102</ele>
        <time>2023-01-10T17:26:30Z</time>
      </trkpt>
      <trkpt lat="49.01518" lon="1.87772">
        <ele>101</ele>
        <time>2023-01-10T17:26:45Z</time>
      </trkpt>
      <trkpt lat="49.01531" lon="1.87773">
        <ele>101</ele>
        <time>2023-01-10T17:27:02Z</time>
      </trkpt>
      <trkpt lat="49.01592" lon="1.87687">
        <ele>98</ele>
        <time>2023-01-10T17:28:53Z</time>
      </trkpt>
      <trkpt lat="49.01623" lon="1.8765">
        <ele>98</ele>
        <time>2023-01-10T17:29:45Z</time>
      </trkpt>
      <trkpt lat="49.01716" lon="1.87553">
        <ele>94</ele>
        <time>2023-01-10T17:32:16Z</time>
      </trkpt>
      <trkpt lat="49.01739" lon="1.87557">
        <ele>92</ele>
        <time>2023-01-10T17:32:47Z</time>
      </trkpt>
      <trkpt lat="49.01766" lon="1.87575">
        <ele>89</ele>
        <time>2023-01-10T17:33:26Z</time>
      </trkpt>
      <trkpt lat="49.01873" lon="1.87696">
        <ele>79</ele>
        <time>2023-01-10T17:36:24Z</time>
      </trkpt>
      <trkpt lat="49.01908" lon="1.87731">
        <ele>77</ele>
        <time>2023-01-10T17:37:20Z</time>
      </trkpt>
      <trkpt lat="49.01933" lon="1.87755">
        <ele>74</ele>
        <time>2023-01-10T17:37:59Z</time>
      </trkpt>
      <trkpt lat="49.01941" lon="1.8776">
        <ele>73</ele>
        <time>2023-01-10T17:38:11Z</time>
      </trkpt>
      <trkpt lat="49.01948" lon="1.87756">
        <ele>72</ele>
        <time>2023-01-10T17:38:21Z</time>
      </trkpt>
      <trkpt lat="49.01995" lon="1.87669">
        <ele>63</ele>
        <time>2023-01-10T17:39:59Z</time>
      </trkpt>
      <trkpt lat="49.02024" lon="1.87653">
        <ele>58</ele>
        <time>2023-01-10T17:40:40Z</time>
      </trkpt>
      <trkpt lat="49.02044" lon="1.87634">
        <ele>54</ele>
        <time>2023-01-10T17:41:12Z</time>
      </trkpt>
      <trkpt lat="49.02059" lon="1.8758">
        <ele>51</ele>
        <time>2023-01-10T17:42:03Z</time>
      </trkpt>
      <trkpt lat="49.02037" lon="1.87515">
        <ele>53</ele>
        <time>2023-01-10T17:43:07Z</time>
      </trkpt>
      <trkpt lat="49.02035" lon="1.87493">
        <ele>54</ele>
        <time>2023-01-10T17:43:27Z</time>
      </trkpt>
      <trkpt lat="49.02083" lon="1.87415">
        <ele>54</ele>
        <time>2023-01-10T17:45:00Z</time>
      </trkpt>
      <trkpt lat="49.02146" lon="1.8732">
        <ele>61</ele>
        <time>2023-01-10T17:46:58Z</time>
      </trkpt>
      <trkpt lat="49.02171" lon="1.87258">
        <ele>62</ele>
        <time>2023-01-10T17:48:02Z</time>
      </trkpt>
      <trkpt lat="49.02204" lon="1.87283">
        <ele>57</ele>
        <time>2023-01-10T17:48:51Z</time>
      </trkpt>
      <trkpt lat="49.02236" lon="1.87355">
        <ele>54</ele>
        <time>2023-01-10T17:50:07Z</time>
      </trkpt>
      <trkpt lat="49.0225" lon="1.87381">
        <ele>52</ele>
        <time>2023-01-10T17:50:37Z</time>
      </trkpt>
      <trkpt lat="49.02324" lon="1.87428">
        <ele>41</ele>
        <time>2023-01-10T17:52:24Z</time>
      </trkpt>
      <trkpt lat="49.02392" lon="1.87456">
        <ele>35</ele>
        <time>2023-01-10T17:53:58Z</time>
      </trkpt>
      <trkpt lat="49.02406" lon="1.87418">
        <ele>35</ele>
        <time>2023-01-10T17:54:36Z</time>
      </trkpt>
      <trkpt lat="49.02461" lon="1.87479">
        <ele>32</ele>
        <time>2023-01-10T17:56:07Z</time>
      </trkpt>
      <trkpt lat="49.0248" lon="1.8749">
        <ele>32</ele>
        <time>2023-01-10T17:56:34Z</time>
      </trkpt>
      <trkpt lat="49.02503" lon="1.87499">
        <ele>31</ele>
        <time>2023-01-10T17:57:06Z</time>
      </trkpt>
      <trkpt lat="49.02546" lon="1.87505">
        <ele>32</ele>
        <time>2023-01-10T17:58:03Z</time>
      </trkpt>
      <trkpt lat="49.02577" lon="1.87517">
        <ele>34</ele>
        <time>2023-01-10T17:58:46Z</time>
      </trkpt>
      <trkpt lat="49.02565" lon="1.87592">
        <ele>37</ele>
        <time>2023-01-10T17:59:53Z</time>
      </trkpt>
      <trkpt lat="49.02549" lon="1.87636">
        <ele>38</ele>
        <time>2023-01-10T18:00:37Z</time>
      </trkpt>
      <trkpt lat="49.02542" lon="1.87681">
        <ele>41</ele>
        <time>2023-01-10T18:01:18Z</time>
      </trkpt>
      <trkpt lat="49.02555" lon="1.87676">
        <ele>42</ele>
        <time>2023-01-10T18:01:36Z</time>
      </trkpt>
      <trkpt lat="49.02602" lon="1.87618">
        <ele>43</ele>
        <time>2023-01-10T18:02:56Z</time>
      </trkpt>
      <trkpt lat="49.02628" lon="1.87604">
        <ele>45</ele>
        <time>2023-01-10T18:03:33Z</time>
      </trkpt>
      <trkpt lat="49.02647" lon="1.87607">
        <ele>48</ele>
        <time>2023-01-10T18:03:59Z</time>
      </trkpt>
      <trkpt lat="49.02667" lon="1.87621">
        <ele>52</ele>
        <time>2023-01-10T18:04:28Z</time>
      </trkpt>
      <trkpt lat="49.02677" lon="1.87625">
        <ele>53</ele>
        <time>2023-01-10T18:04:42Z</time>
      </trkpt>
      <trkpt lat="49.02684" lon="1.87625">
        <ele>54</ele>
        <time>2023-01-10T18:04:51Z</time>
      </trkpt>
      <trkpt lat="49.02699" lon="1.87621">
        <ele>56</ele>
        <time>2023-01-10T18:05:12Z</time>
      </trkpt>
      <trkpt lat="49.02726" lon="1.87594">
        <ele>58</ele>
        <time>2023-01-10T18:05:55Z</time>
      </trkpt>
      <trkpt lat="49.0274" lon="1.87586">
        <ele>59</ele>
        <time>2023-01-10T18:06:15Z</time>
      </trkpt>
      <trkpt lat="49.02788" lon="1.87585">
        <ele>63</ele>
        <time>2023-01-10T18:07:19Z</time>
      </trkpt>
      <trkpt lat="49.02818" lon="1.87602">
        <ele>67</ele>
        <time>2023-01-10T18:08:01Z</time>
      </trkpt>
      <trkpt lat="49.02845" lon="1.87612">
        <ele>70</ele>
        <time>2023-01-10T18:08:38Z</time>
      </trkpt>
      <trkpt lat="49.02876" lon="1.87642">
        <ele>77</ele>
        <time>2023-01-10T18:09:27Z</time>
      </trkpt>
      <trkpt lat="49.02973" lon="1.87638">
        <ele>87</ele>
        <time>2023-01-10T18:11:37Z</time>
      </trkpt>
      <trkpt lat="49.03063" lon="1.87663">
        <ele>95</ele>
        <time>2023-01-10T18:13:39Z</time>
      </trkpt>
      <trkpt lat="49.03169" lon="1.8774">
        <ele>95</ele>
        <time>2023-01-10T18:16:16Z</time>
      </trkpt>
      <trkpt lat="49.03227" lon="1.87788">
        <ele>96</ele>
        <time>2023-01-10T18:17:44Z</time>
      </trkpt>
      <trkpt lat="49.03304" lon="1.87895">
        <ele>96</ele>
        <time>2023-01-10T18:20:03Z</time>
      </trkpt>
      <trkpt lat="49.03315" lon="1.87891">
        <ele>95</ele>
        <time>2023-01-10T18:20:18Z</time>
      </trkpt>
      <trkpt lat="49.03312" lon="1.878">
        <ele>95</ele>
        <time>2023-01-10T18:21:38Z</time>
      </trkpt>
      <trkpt lat="49.03305" lon="1.87726">
        <ele>93</ele>
        <time>2023-01-10T18:22:43Z</time>
      </trkpt>
      <trkpt lat="49.03304" lon="1.87657">
        <ele>90</ele>
        <time>2023-01-10T18:23:43Z</time>
      </trkpt>
      <trkpt lat="49.03338" lon="1.87533">
        <ele>91</ele>
        <time>2023-01-10T18:25:41Z</time>
      </trkpt>
      <trkpt lat="49.03421" lon="1.87315">
        <ele>91</ele>
        <time>2023-01-10T18:29:22Z</time>
      </trkpt>
      <trkpt lat="49.03435" lon="1.87217">
        <ele>89</ele>
        <time>2023-01-10T18:30:49Z</time>
      </trkpt>
      <trkpt lat="49.03421" lon="1.87147">
        <ele>87</ele>
        <time>2023-01-10T18:31:53Z</time>
      </trkpt>
      <trkpt lat="49.03447" lon="1.87161">
        <ele>88</ele>
        <time>2023-01-10T18:32:30Z</time>
      </trkpt>
      <trkpt lat="49.03482" lon="1.86986">
        <ele>73</ele>
        <time>2023-01-10T18:35:10Z</time>
      </trkpt>
      <trkpt lat="49.03496" lon="1.8695">
        <ele>67</ele>
        <time>2023-01-10T18:35:47Z</time>
      </trkpt>
      <trkpt lat="49.03487" lon="1.86936">
        <ele>66</ele>
        <time>2023-01-10T18:36:04Z</time>
      </trkpt>
      <trkpt lat="49.03441" lon="1.86889">
        <ele>59</ele>
        <time>2023-01-10T18:37:18Z</time>
      </trkpt>
      <trkpt lat="49.03492" lon="1.86822">
        <ele>50</ele>
        <time>2023-01-10T18:38:48Z</time>
      </trkpt>
      <trkpt lat="49.03497" lon="1.86794">
        <ele>46</ele>
        <time>2023-01-10T18:39:13Z</time>
      </trkpt>
      <trkpt lat="49.03507" lon="1.86693">
        <ele>39</ele>
        <time>2023-01-10T18:40:42Z</time>
      </trkpt>
      <trkpt lat="49.03537" lon="1.86662">
        <ele>40</ele>
        <time>2023-01-10T18:41:31Z</time>
      </trkpt>
      <trkpt lat="49.0355" lon="1.86644">
        <ele>40</ele>
        <time>2023-01-10T18:41:54Z</time>
      </trkpt>
      <trkpt lat="49.03545" lon="1.86627">
        <ele>40</ele>
        <time>2023-01-10T18:42:10Z</time>
      </trkpt>
      <trkpt lat="49.03529" lon="1.86604">
        <ele>40</ele>
        <time>2023-01-10T18:42:40Z</time>
      </trkpt>
      <trkpt lat="49.03499" lon="1.86539">
        <ele>39</ele>
        <time>2023-01-10T18:43:49Z</time>
      </trkpt>
      <trkpt lat="49.03487" lon="1.86507">
        <ele>38</ele>
        <time>2023-01-10T18:44:22Z</time>
      </trkpt>
      <trkpt lat="49.03486" lon="1.86497">
        <ele>38</ele>
        <time>2023-01-10T18:44:30Z</time>
      </trkpt>
      <trkpt lat="49.0349" lon="1.86457">
        <ele>39</ele>
        <time>2023-01-10T18:45:06Z</time>
      </trkpt>
    </trkseg>
  </trk>
</gpx>